Time;durP1;ratioP1;P1;durP2;ratioP2;P2;SDS_P1;SDS_P2;PMS_P1;PMS_P2;Temp;Humidity;BMP_temperature;BMP_pressure;BME280_temperature;BME280_humidity;BME280_pressure;Samples;Min_cycle;Max_cycle;Signal;HPM_P1;HPM_P2
2023/08/09 00:02:00;;;;;;;2.85;2.00;;;17.90;64.80;;;19.64;48.13;97510.66;5032769;28;20511;-58
2023/08/09 00:04:28;;;;;;;3.72;1.95;;;17.90;64.50;;;19.60;47.88;97506.72;5032865;28;20508;-57
2023/08/09 00:06:55;;;;;;;2.55;2.35;;;17.90;64.40;;;19.59;47.88;97497.00;5031998;28;20524;-58
2023/08/09 00:09:23;;;;;;;2.58;2.38;;;17.90;63.80;;;19.61;47.61;97492.19;5032231;28;20674;-57
2023/08/09 00:11:50;;;;;;;3.88;1.67;;;17.90;63.30;;;19.62;47.52;97491.16;5032670;28;20049;-57
2023/08/09 00:14:18;;;;;;;3.47;2.58;;;17.90;62.80;;;19.63;47.40;97488.22;5031501;28;20508;-56
2023/08/09 00:16:45;;;;;;;4.47;2.03;;;18.00;62.30;;;19.63;47.43;97487.41;5032327;28;20037;-57
2023/08/09 00:19:13;;;;;;;2.20;1.88;;;18.00;61.90;;;19.60;47.48;97485.13;5031977;28;20505;-56
2023/08/09 00:21:41;;;;;;;3.30;2.10;;;18.00;62.00;;;19.60;47.48;97487.84;5032326;28;20041;-57
2023/08/09 00:24:10;;;;;;;2.78;1.65;;;18.00;62.00;;;19.63;47.42;97490.91;5032393;28;20053;-55
2023/08/09 00:26:38;;;;;;;2.45;2.20;;;18.00;61.80;;;19.57;47.71;97470.22;5032266;28;20056;-56
2023/08/09 00:29:05;;;;;;;2.58;1.85;;;18.00;62.00;;;19.57;47.79;97478.31;5022347;28;20073;-55
2023/08/09 00:31:33;;;;;;;2.58;1.88;;;17.90;62.60;;;19.55;47.83;97472.31;5031345;28;20057;-57
2023/08/09 00:34:01;;;;;;;2.20;1.70;;;17.90;62.80;;;19.53;47.66;97466.31;5011593;28;20049;-56
2023/08/09 00:36:29;;;;;;;3.88;2.00;;;17.80;62.90;;;19.47;47.63;97465.31;5032131;28;20341;-54
2023/08/09 00:38:56;;;;;;;2.83;1.77;;;17.90;63.00;;;19.46;47.79;97462.84;5030272;28;20046;-57
2023/08/09 00:41:24;;;;;;;2.70;2.00;;;17.80;62.40;;;19.47;47.49;97462.63;5031949;28;20528;-57
2023/08/09 00:43:51;;;;;;;3.00;2.10;;;17.90;62.40;;;19.50;47.70;97458.66;5032030;28;20050;-56
2023/08/09 00:46:21;;;;;;;2.70;1.80;;;17.90;62.10;;;19.50;47.31;97455.94;5029899;28;20069;-56
2023/08/09 00:48:49;;;;;;;3.47;1.90;;;18.00;61.70;;;19.54;47.47;97465.28;5031808;28;20049;-56
2023/08/09 00:51:19;;;;;;;2.88;2.55;;;18.00;61.80;;;19.54;47.51;97462.56;5013873;28;20068;-57
2023/08/09 00:53:50;;;;;;;3.30;2.30;;;18.00;61.90;;;19.53;47.80;97474.41;5022994;28;20057;-57
2023/08/09 00:56:18;;;;;;;2.42;1.88;;;18.00;62.40;;;19.50;47.82;97474.03;5030567;28;20417;-55
2023/08/09 00:58:45;;;;;;;2.97;1.77;;;17.90;62.80;;;19.49;47.96;97467.81;5029984;28;20053;-54
2023/08/09 01:01:13;;;;;;;1.70;1.60;;;17.90;63.20;;;19.47;48.12;97459.13;5014101;28;20060;-56
2023/08/09 01:03:42;;;;;;;3.13;2.05;;;17.80;63.70;;;19.42;48.22;97462.47;5030326;28;20054;-56
2023/08/09 01:06:31;;;;;;;3.63;2.10;;;17.80;64.20;;;19.42;48.35;97459.75;5030083;28;20041;-53
2023/08/09 01:09:04;;;;;;;3.03;1.92;;;17.80;64.50;;;19.42;48.51;97459.75;5030067;28;20056;-55
2023/08/09 01:11:48;;;;;;;2.35;1.55;;;17.70;64.50;;;19.40;48.42;97456.47;5031565;28;20044;-57
2023/08/09 01:14:18;;;;;;;3.10;2.10;;;17.70;65.00;;;19.39;48.60;97454.00;5015172;28;20504;-55
2023/08/09 01:16:49;;;;;;;3.25;1.98;;;17.70;64.60;;;19.38;48.61;97453.16;5030083;28;20037;-55
2023/08/09 01:19:53;;;;;;;3.22;2.17;;;17.70;64.40;;;19.35;48.26;97447.38;5021784;28;20407;-54
2023/08/09 01:22:30;;;;;;;3.22;2.38;;;17.80;64.20;;;19.39;48.44;97441.31;4995118;28;20425;-57
2023/08/09 01:25:03;;;;;;;2.20;1.88;;;17.80;64.10;;;19.40;48.73;97434.03;5031360;28;20046;-56
2023/08/09 01:27:31;;;;;;;;;;;17.80;64.50;;;19.39;48.61;97438.63;5024374;28;20114;-55
2023/08/09 01:30:00;;;;;;;3.70;2.05;;;17.80;64.70;;;19.42;48.41;97440.03;5030920;28;20300;-54
2023/08/09 01:32:28;;;;;;;2.25;1.45;;;17.80;64.50;;;19.33;48.70;97431.44;5023509;28;20060;-56
2023/08/09 01:34:58;;;;;;;2.63;2.05;;;17.70;64.90;;;19.32;48.77;97439.72;5030241;28;20049;-57
2023/08/09 01:37:46;;;;;;;3.72;1.90;;;17.70;65.00;;;19.33;48.78;97449.47;5029528;28;20049;-55
2023/08/09 01:40:17;;;;;;;4.07;1.80;;;17.70;65.00;;;19.31;48.58;97451.56;5013369;28;20064;-57
2023/08/09 01:42:46;;;;;;;4.00;1.88;;;17.70;64.90;;;19.34;48.84;97461.94;5022192;28;20052;-54
2023/08/09 01:45:14;;;;;;;3.30;1.83;;;17.70;64.70;;;19.35;48.67;97458.16;5013851;28;20452;-57
2023/08/09 01:47:42;;;;;;;4.03;1.77;;;17.70;64.60;;;19.32;48.99;97456.75;5029949;28;20042;-54
2023/08/09 01:50:20;;;;;;;1.90;1.65;;;17.70;64.80;;;19.33;48.74;97471.91;5028595;28;20048;-57
2023/08/09 01:52:48;;;;;;;2.50;1.92;;;17.80;64.80;;;19.35;48.61;97467.13;5029581;28;20040;-60
2023/08/09 01:55:19;;;;;;;3.70;1.50;;;17.80;64.70;;;19.39;48.65;97470.19;5029907;28;20045;-57
2023/08/09 01:57:49;;;;;;;3.90;2.40;;;17.80;64.40;;;19.41;48.62;97476.19;5033767;28;20049;-57
2023/08/09 02:00:19;;;;;;;3.13;1.70;;;17.80;64.50;;;19.42;48.70;97485.94;5033135;28;20060;-57
2023/08/09 02:02:49;;;;;;;2.72;1.90;;;17.80;64.60;;;19.40;48.83;97488.84;5033816;28;20524;-57
2023/08/09 02:05:18;;;;;;;2.42;2.08;;;17.80;65.50;;;19.40;48.87;97485.34;5033907;28;20398;-57
2023/08/09 02:07:46;;;;;;;5.28;1.70;;;17.80;65.20;;;19.40;48.99;97490.72;5049281;28;20046;-58
2023/08/09 02:10:17;;;;;;;2.58;2.00;;;17.80;65.50;;;19.37;49.14;97489.31;5033885;28;20061;-58
2023/08/09 02:12:50;;;;;;;2.90;1.83;;;17.70;66.10;;;19.36;49.29;97487.66;5033849;28;20042;-56
2023/08/09 02:15:20;;;;;;;1.98;1.40;;;17.70;65.80;;;19.38;49.23;97493.66;5025988;28;20049;-57
2023/08/09 02:17:49;;;;;;;3.35;1.73;;;17.70;66.00;;;19.38;49.31;97492.81;5034753;28;20046;-54
2023/08/09 02:20:19;;;;;;;2.25;1.90;;;17.70;66.00;;;19.39;49.20;97494.50;5034384;28;20034;-53
2023/08/09 02:22:48;;;;;;;3.10;2.10;;;17.70;66.10;;;19.35;49.40;97493.25;5034373;28;20049;-55
2023/08/09 02:25:17;;;;;;;2.50;1.80;;;17.60;66.20;;;19.34;49.34;97491.63;5034428;28;20057;-51
2023/08/09 02:27:46;;;;;;;1.90;1.65;;;17.60;66.40;;;19.35;49.40;97493.25;5034659;28;20037;-54
2023/08/09 02:30:14;;;;;;;3.97;2.00;;;17.60;66.00;;;19.34;49.19;97487.03;5033149;28;20049;-57
2023/08/09 02:32:42;;;;;;;4.10;1.63;;;17.70;65.80;;;19.33;49.22;97487.25;5034615;28;20060;-54
2023/08/09 02:35:10;;;;;;;3.45;2.30;;;17.60;65.80;;;19.33;49.35;97480.00;5034104;28;20038;-55
2023/08/09 02:37:38;;;;;;;2.22;1.83;;;17.60;65.70;;;19.33;49.53;97476.47;5033182;28;20064;-55
2023/08/09 02:40:07;;;;;;;2.08;1.77;;;17.60;65.70;;;19.34;49.25;97476.25;5033224;28;20037;-52
2023/08/09 02:42:35;;;;;;;2.42;1.85;;;17.70;65.90;;;19.33;49.39;97476.47;5025578;28;20112;-55
2023/08/09 02:45:05;;;;;;;2.65;1.85;;;17.60;66.00;;;19.30;49.52;97475.03;5034013;28;20413;-53
2023/08/09 02:47:33;;;;;;;4.20;1.85;;;17.60;66.20;;;19.27;49.61;97472.81;5024984;28;20045;-56
2023/08/09 02:50:00;;;;;;;2.70;1.88;;;17.60;66.60;;;19.22;49.64;97465.34;5033001;28;20045;-55
2023/08/09 02:52:28;;;;;;;2.13;1.70;;;17.50;66.80;;;19.19;50.02;97464.97;5033891;28;20061;-55
2023/08/09 02:54:55;;;;;;;1.90;1.67;;;17.50;66.90;;;19.18;49.96;97474.13;5032800;28;20049;-58
2023/08/09 02:57:23;;;;;;;3.22;1.80;;;17.50;67.20;;;19.15;49.91;97474.53;5032383;28;20053;-57
2023/08/09 02:59:51;;;;;;;2.15;1.60;;;17.40;67.10;;;19.14;49.98;97473.72;5049005;28;20041;-54
2023/08/09 03:02:19;;;;;;;3.70;1.92;;;17.40;67.30;;;19.14;50.17;97478.31;5032709;28;20512;-55
2023/08/09 03:04:46;;;;;;;2.88;1.90;;;17.40;67.80;;;19.12;50.19;97481.22;5032633;28;20046;-55
2023/08/09 03:07:16;;;;;;;2.28;1.77;;;17.40;67.70;;;19.10;50.21;97472.50;5030701;28;20053;-57
2023/08/09 03:09:44;;;;;;;2.30;1.73;;;17.40;68.00;;;19.12;50.20;97477.69;5032400;28;20432;-55
2023/08/09 03:12:12;;;;;;;6.50;2.58;;;17.40;67.80;;;19.12;50.21;97475.00;5032135;28;20049;-56
2023/08/09 03:14:39;;;;;;;1.63;1.50;;;17.40;67.90;;;19.10;50.50;97480.59;5031882;28;20045;-56
2023/08/09 03:17:07;;;;;;;3.17;2.03;;;17.40;68.20;;;19.07;50.58;97472.94;5032147;28;20432;-52
2023/08/09 03:19:35;;;;;;;2.60;1.92;;;17.30;68.60;;;19.05;50.47;97472.34;5015110;28;20061;-56
2023/08/09 03:22:02;;;;;;;3.00;2.03;;;17.30;69.00;;;19.02;50.59;97468.22;5032516;28;20034;-56
2023/08/09 03:24:30;;;;;;;2.72;1.90;;;17.20;69.00;;;19.00;50.64;97466.75;5031902;28;20125;-57
2023/08/09 03:26:58;;;;;;;2.78;2.08;;;17.20;69.10;;;18.98;50.78;97463.47;5031751;28;20061;-55
2023/08/09 03:29:25;;;;;;;3.40;1.98;;;17.20;69.20;;;18.90;50.80;97472.66;5015287;28;20060;-56
2023/08/09 03:31:53;;;;;;;2.58;1.70;;;17.20;69.30;;;18.89;50.90;97463.72;5032563;28;20052;-58
2023/08/09 03:34:21;;;;;;;2.63;1.63;;;17.20;69.20;;;18.90;50.94;97467.25;5030218;28;20520;-58
2023/08/09 03:36:49;;;;;;;3.22;1.85;;;17.20;69.20;;;18.85;51.07;97470.63;5030793;28;20041;-54
2023/08/09 03:39:16;;;;;;;4.00;1.90;;;17.10;69.50;;;18.81;51.15;97472.09;5031055;28;20049;-57
2023/08/09 03:41:44;;;;;;;2.40;1.77;;;17.10;69.80;;;18.76;51.25;97469.19;5031606;28;20045;-57
2023/08/09 03:44:13;;;;;;;2.75;1.85;;;17.10;69.80;;;18.77;51.33;97472.72;5032360;28;20693;-57
2023/08/09 03:46:41;;;;;;;3.40;1.85;;;17.10;69.90;;;18.74;51.51;97475.84;5031464;28;20037;-57
2023/08/09 03:49:09;;;;;;;3.10;2.00;;;17.10;69.90;;;18.76;51.36;97485.38;5031115;28;20045;-57
2023/08/09 03:51:41;;;;;;;2.80;1.73;;;17.10;69.90;;;18.61;51.89;97476.75;5024310;28;20037;-56
2023/08/09 03:54:09;;;;;;;2.67;1.98;;;17.10;70.60;;;18.64;52.00;97484.41;5032279;28;20360;-57
2023/08/09 03:56:37;;;;;;;2.20;1.80;;;17.10;71.00;;;18.66;51.90;97480.44;5031196;28;20038;-56
2023/08/09 03:59:05;;;;;;;3.42;2.20;;;17.10;70.40;;;18.64;52.03;97489.81;5032535;28;20041;-57
2023/08/09 04:01:33;;;;;;;2.63;1.70;;;17.10;70.50;;;18.65;51.95;97491.44;5031179;28;20053;-58
2023/08/09 04:04:00;;;;;;;4.78;2.15;;;17.00;70.10;;;18.65;51.75;97484.22;5032088;28;20057;-59
2023/08/09 04:06:29;;;;;;;3.33;1.88;;;17.10;69.80;;;18.73;51.50;97490.38;5032253;28;20398;-59
2023/08/09 04:08:56;;;;;;;2.40;1.85;;;17.20;69.00;;;18.73;51.40;97491.22;5032255;28;20041;-59
2023/08/09 04:11:24;;;;;;;3.83;2.05;;;17.20;68.80;;;18.78;51.23;97487.84;5032203;28;20041;-59
2023/08/09 04:13:51;;;;;;;5.78;1.80;;;17.30;68.20;;;18.78;51.06;97485.97;5032589;28;20041;-59
2023/08/09 04:16:19;;;;;;;2.70;1.85;;;17.30;68.00;;;18.79;50.92;97476.03;5031604;28;20069;-59
2023/08/09 04:18:47;;;;;;;7.13;1.80;;;17.40;67.50;;;18.78;50.84;97480.59;5031890;28;20045;-59
2023/08/09 04:21:15;;;;;;;4.53;1.55;;;17.40;67.10;;;18.82;50.75;97476.44;5030900;28;20049;-59
2023/08/09 04:23:43;;;;;;;2.47;1.67;;;17.40;66.80;;;18.81;50.58;97476.69;5007110;28;20049;-59
2023/08/09 04:26:10;;;;;;;5.35;2.53;;;17.40;66.50;;;18.79;50.57;97479.56;5014901;28;20045;-59
2023/08/09 04:28:39;;;;;;;3.50;1.60;;;17.40;66.30;;;18.87;50.37;97476.63;5030908;28;20042;-58
2023/08/09 04:31:06;;;;;;;3.28;1.67;;;17.50;66.00;;;18.90;50.35;97472.66;5031959;28;20056;-59
2023/08/09 04:33:34;;;;;;;2.60;1.83;;;17.50;65.90;;;18.93;50.18;97483.00;5032100;28;20076;-59
2023/08/09 04:36:02;;;;;;;5.45;2.47;;;17.60;65.50;;;18.94;50.12;97481.97;5032180;28;20068;-59
2023/08/09 04:38:29;;;;;;;1.92;1.50;;;17.60;65.60;;;19.03;50.01;97480.66;5031813;28;20049;-59
2023/08/09 04:40:57;;;;;;;3.47;1.70;;;17.70;65.30;;;19.05;49.93;97475.03;5031055;28;20053;-58
2023/08/09 04:43:25;;;;;;;2.00;1.80;;;17.70;65.00;;;19.01;49.77;97469.25;5031898;28;20050;-59
2023/08/09 04:45:53;;;;;;;1.50;1.40;;;17.70;64.90;;;19.04;49.69;97468.00;5031922;28;20041;-59
2023/08/09 04:48:21;;;;;;;3.53;1.80;;;17.70;64.80;;;19.05;49.73;97464.25;5030590;28;20049;-59
2023/08/09 04:50:48;;;;;;;2.45;1.65;;;17.70;64.70;;;19.06;49.71;97466.72;5031664;28;20045;-58
2023/08/09 04:53:17;;;;;;;1.67;1.52;;;17.70;64.40;;;19.13;49.46;97482.03;5031876;28;20108;-58
2023/08/09 04:55:45;;;;;;;4.03;1.70;;;17.80;64.30;;;19.12;49.32;97478.50;5023684;28;20041;-59
2023/08/09 04:58:12;;;;;;;2.97;1.70;;;17.80;63.90;;;19.16;49.28;97470.81;5030677;28;20049;-59
2023/08/09 05:00:40;;;;;;;2.22;1.60;;;17.80;64.00;;;19.07;49.49;97472.94;5030228;28;20045;-58
2023/08/09 05:03:08;;;;;;;1.65;1.25;;;17.80;63.50;;;19.11;49.43;97478.72;5031683;28;20049;-59
2023/08/09 05:05:36;;;;;;;3.85;1.77;;;17.80;63.50;;;19.19;49.21;97479.28;5031559;28;20045;-59
2023/08/09 05:08:03;;;;;;;2.75;2.20;;;17.90;63.40;;;19.17;49.31;97477.84;5029902;28;20045;-59
2023/08/09 05:10:31;;;;;;;7.47;1.95;;;17.90;63.40;;;19.16;49.26;97481.59;5030034;28;20046;-58
2023/08/09 05:12:59;;;;;;;2.00;1.80;;;17.90;63.20;;;19.18;49.17;97468.72;5031685;28;20128;-57
2023/08/09 05:15:29;;;;;;;2.92;1.65;;;17.90;63.40;;;19.22;48.99;97483.41;5031411;28;20040;-57
2023/08/09 05:17:57;;;;;;;2.33;1.80;;;17.90;63.00;;;19.12;49.22;97470.41;5031408;28;20041;-60
2023/08/09 05:20:25;;;;;;;4.10;1.60;;;17.90;63.20;;;19.24;49.10;97471.34;5031156;28;20052;-59
2023/08/09 05:22:52;;;;;;;2.53;1.83;;;17.90;63.10;;;19.27;49.03;97470.91;5030040;28;20052;-58
2023/08/09 05:25:20;;;;;;;3.92;1.95;;;18.00;63.10;;;19.23;49.00;97464.31;5031429;28;20046;-59
2023/08/09 05:27:48;;;;;;;2.20;1.65;;;18.00;62.90;;;19.30;48.88;97458.03;5023217;28;20037;-59
2023/08/09 05:30:16;;;;;;;2.97;1.90;;;18.10;62.90;;;19.30;48.95;97461.53;5030229;28;20412;-59
2023/08/09 05:32:43;;;;;;;3.35;1.95;;;18.10;62.70;;;19.32;49.06;97464.84;5029846;28;20416;-59
2023/08/09 05:35:11;;;;;;;2.58;1.80;;;18.10;62.90;;;19.36;48.91;97470.63;5030949;28;20049;-59
2023/08/09 05:37:39;;;;;;;3.17;1.98;;;18.10;62.60;;;19.44;48.75;97457.69;5031048;28;20042;-59
2023/08/09 05:40:13;;;;;;;2.95;2.00;;;18.20;62.50;;;19.51;48.72;97463.00;5029982;28;20048;-59
2023/08/09 05:42:41;;;;;;;3.25;2.35;;;18.20;62.80;;;19.58;48.54;97466.47;5031147;28;20069;-59
2023/08/09 05:45:09;;;;;;;3.63;1.63;;;18.30;62.80;;;19.61;48.60;97471.41;5030949;28;20048;-60
2023/08/09 05:47:37;;;;;;;2.50;1.60;;;18.30;62.80;;;19.66;48.69;97463.47;5029755;28;20048;-61
2023/08/09 05:50:06;;;;;;;2.53;1.60;;;18.30;62.60;;;19.69;48.54;97470.31;5030625;28;20053;-60
2023/08/09 05:52:34;;;;;;;2.58;1.88;;;18.40;61.80;;;19.70;48.37;97473.81;5031077;28;20045;-61
2023/08/09 05:55:05;;;;;;;3.13;1.80;;;18.40;62.50;;;19.71;48.59;97470.91;5029962;28;20045;-60
2023/08/09 05:57:33;;;;;;;2.33;1.63;;;18.40;62.50;;;19.69;48.73;97470.31;5030709;28;20068;-60
2023/08/09 06:00:01;;;;;;;3.58;1.77;;;18.40;62.10;;;19.74;48.63;97485.88;5030466;28;20037;-60
2023/08/09 06:02:34;;;;;;;4.05;1.75;;;18.40;62.60;;;19.79;48.23;97484.16;5030532;28;20049;-61
2023/08/09 06:05:02;;;;;;;2.22;1.77;;;18.50;62.30;;;19.75;48.26;97490.22;5029708;28;20037;-61
2023/08/09 06:07:30;;;;;;;3.88;1.73;;;18.50;62.30;;;19.76;48.48;97495.41;5029457;28;20049;-60
2023/08/09 06:09:58;;;;;;;2.47;1.85;;;18.50;62.30;;;19.80;48.23;97501.19;5030409;28;20417;-61
2023/08/09 06:12:26;;;;;;;2.42;1.95;;;18.50;62.30;;;19.85;48.32;97490.53;5030806;28;20049;-60
2023/08/09 06:14:53;;;;;;;4.47;1.95;;;18.50;62.20;;;19.83;48.39;97500.72;5030434;28;20145;-60
2023/08/09 06:17:21;;;;;;;4.32;1.90;;;18.50;62.30;;;19.77;48.81;97494.34;5031506;28;20053;-61
2023/08/09 06:19:48;;;;;;;11.23;2.25;;;18.50;62.50;;;19.81;48.66;97508.22;5030045;28;20424;-61
2023/08/09 06:22:16;;;;;;;2.67;1.70;;;18.50;62.60;;;19.92;48.66;97507.50;5030774;28;20056;-61
2023/08/09 06:24:43;;;;;;;2.42;1.80;;;18.70;62.60;;;19.98;48.68;97514.69;5030577;28;20053;-60
2023/08/09 06:27:11;;;;;;;2.78;1.83;;;18.80;61.90;;;19.91;48.71;97516.66;5030637;28;20037;-61
2023/08/09 06:29:39;;;;;;;2.60;1.90;;;18.70;62.40;;;19.93;48.65;97516.41;5030112;28;20041;-61
2023/08/09 06:32:06;;;;;;;2.53;1.80;;;18.70;62.80;;;19.89;49.00;97517.91;5030510;28;20045;-61
2023/08/09 06:34:34;;;;;;;2.10;1.75;;;18.70;62.70;;;19.95;48.72;97525.97;5028379;28;20049;-61
2023/08/09 06:37:02;;;;;;;2.50;1.85;;;18.70;62.90;;;19.96;48.62;97527.59;5029063;28;20037;-61
2023/08/09 06:39:30;;;;;;;3.40;1.92;;;18.60;63.00;;;19.99;48.65;97521.75;5030014;28;20052;-60
2023/08/09 06:41:57;;;;;;;3.30;1.90;;;18.70;63.20;;;20.07;49.00;97523.34;5030142;28;20517;-61
2023/08/09 06:44:27;;;;;;;2.92;1.83;;;18.70;63.20;;;20.12;48.82;97528.06;5032431;28;20086;-61
2023/08/09 06:46:54;;;;;;;5.43;2.63;;;18.70;63.00;;;20.15;48.41;97531.13;5034059;28;20046;-61
2023/08/09 06:49:22;;;;;;;5.10;1.80;;;18.80;63.80;;;20.19;48.68;97531.53;5033313;28;20420;-60
2023/08/09 06:51:51;;;;;;;2.38;1.70;;;18.80;62.90;;;20.21;48.40;97529.41;5033698;28;20064;-61
2023/08/09 06:54:18;;;;;;;2.63;1.80;;;18.80;63.00;;;20.26;48.48;97533.09;5033782;28;20054;-61
2023/08/09 06:56:46;;;;;;;3.70;2.08;;;18.90;63.00;;;20.29;48.84;97528.28;5033724;28;20046;-60
2023/08/09 06:59:14;;;;;;;5.43;2.50;;;19.00;63.00;;;20.35;48.68;97524.69;5033484;28;20068;-61
2023/08/09 07:01:43;;;;;;;2.92;1.80;;;19.00;62.60;;;20.22;48.24;97529.19;5034032;28;20296;-60
2023/08/09 07:04:11;;;;;;;3.45;1.70;;;19.00;61.60;;;20.27;48.50;97532.03;5033868;28;20041;-61
2023/08/09 07:06:38;;;;;;;2.05;1.52;;;19.00;62.10;;;20.26;48.17;97541.22;5033382;28;20068;-62
2023/08/09 07:09:06;;;;;;;2.17;1.67;;;19.00;61.80;;;20.11;48.73;97545.34;5033212;28;20421;-62
2023/08/09 07:11:34;;;;;;;2.97;2.13;;;19.00;62.00;;;20.21;48.25;97553.75;5033713;28;20046;-62
2023/08/09 07:14:02;;;;;;;2.28;1.92;;;19.00;61.90;;;20.29;48.32;97558.84;5026019;28;20053;-61
2023/08/09 07:16:29;;;;;;;3.35;2.40;;;19.10;61.40;;;20.20;48.46;97546.66;5033598;28;20072;-61
2023/08/09 07:18:57;;;;;;;2.28;1.70;;;19.10;61.20;;;20.25;48.39;97552.25;5033105;28;20037;-62
2023/08/09 07:21:27;;;;;;;2.33;1.75;;;19.10;61.30;;;20.29;48.16;97552.63;5032532;28;20056;-62
2023/08/09 07:23:55;;;;;;;4.03;2.28;;;19.10;61.30;;;20.31;48.07;97561.31;5032939;28;20046;-62
2023/08/09 07:26:26;;;;;;;2.45;2.25;;;19.20;61.00;;;20.21;48.42;97575.38;5033513;28;20062;-62
2023/08/09 07:28:54;;;;;;;2.15;1.90;;;19.10;61.40;;;20.21;48.20;97578.88;5031792;28;20405;-62
2023/08/09 07:31:24;;;;;;;2.20;1.67;;;19.10;61.50;;;20.24;48.61;97564.94;5032934;28;20046;-61
2023/08/09 07:33:52;;;;;;;2.30;1.80;;;19.10;61.80;;;20.16;48.76;97573.34;5033318;28;20045;-61
2023/08/09 07:36:20;;;;;;;2.67;1.85;;;19.10;61.80;;;20.14;48.48;97564.63;5033298;28;20513;-61
2023/08/09 07:38:48;;;;;;;4.93;2.22;;;19.00;61.80;;;20.21;48.72;97578.06;5033045;28;20046;-61
2023/08/09 07:41:15;;;;;;;4.40;2.15;;;19.10;62.30;;;20.23;48.38;97575.97;5032595;28;20054;-60
2023/08/09 07:43:44;;;;;;;3.65;1.60;;;19.10;62.00;;;20.19;48.61;97572.06;5032864;28;20045;-60
2023/08/09 07:46:11;;;;;;;3.20;1.83;;;19.20;61.50;;;20.15;49.07;97571.69;5032242;28;20053;-59
2023/08/09 07:48:39;;;;;;;2.72;2.28;;;19.10;62.00;;;20.01;49.42;97587.22;5032808;28;20050;-59
2023/08/09 07:51:11;;;;;;;2.60;1.88;;;19.10;62.30;;;20.08;49.23;97575.50;5031316;28;20034;-60
2023/08/09 07:53:40;;;;;;;3.17;1.95;;;19.10;62.10;;;20.11;49.13;97586.69;5032270;28;20049;-60
2023/08/09 07:56:10;;;;;;;4.88;2.15;;;19.20;62.20;;;20.18;49.05;97589.31;5031669;28;20041;-60
2023/08/09 07:58:38;;;;;;;3.60;1.98;;;19.20;62.20;;;20.14;49.41;97596.22;5032604;28;20054;-60
2023/08/09 08:01:05;;;;;;;4.47;2.40;;;19.20;62.10;;;20.12;49.28;97591.03;5032376;28;20042;-60
2023/08/09 08:03:33;;;;;;;2.13;1.73;;;19.10;62.10;;;19.99;49.37;97600.13;5018340;28;20052;-60
2023/08/09 08:06:02;;;;;;;6.18;2.05;;;19.00;62.30;;;20.01;49.29;97608.81;5020489;28;20064;-60
2023/08/09 08:08:29;;;;;;;2.67;2.00;;;18.90;62.70;;;19.93;49.50;97616.38;5018261;28;20418;-60
2023/08/09 08:10:57;;;;;;;3.50;2.55;;;18.90;62.90;;;19.78;50.13;97608.63;5023140;28;20052;-60
2023/08/09 08:13:25;;;;;;;3.92;2.00;;;18.80;63.80;;;19.73;50.35;97614.66;5021627;28;20053;-60
2023/08/09 08:15:52;;;;;;;2.58;2.05;;;18.70;64.20;;;19.92;49.87;97610.16;5001560;28;20038;-60
2023/08/09 08:18:21;;;;;;;3.70;2.15;;;18.80;64.50;;;19.89;50.28;97615.16;5021808;28;20528;-60
2023/08/09 08:20:48;;;;;;;4.20;2.00;;;18.80;65.00;;;19.89;50.53;97626.81;5021163;28;20547;-60
2023/08/09 08:23:16;;;;;;;7.10;2.28;;;18.80;65.40;;;19.93;50.54;97622.63;5021983;28;20052;-60
2023/08/09 08:25:44;;;;;;;3.28;2.03;;;18.80;66.00;;;19.97;50.90;97629.22;5018402;28;20037;-60
2023/08/09 08:28:12;;;;;;;2.78;2.13;;;18.80;66.20;;;19.97;51.53;97631.94;5023059;28;20080;-60
2023/08/09 08:30:39;;;;;;;3.03;2.10;;;18.80;67.90;;;19.83;51.77;97636.63;5021443;28;20418;-60
2023/08/09 08:33:08;;;;;;;4.38;3.00;;;18.60;68.20;;;19.78;51.81;97636.47;5021283;28;20048;-60
2023/08/09 08:35:43;;;;;;;3.20;1.80;;;18.60;68.70;;;19.85;51.72;97639.09;5023580;28;20402;-60
2023/08/09 08:38:11;;;;;;;3.03;1.90;;;18.60;68.60;;;19.88;51.95;97640.53;5022304;28;20045;-60
2023/08/09 08:40:38;;;;;;;4.88;2.25;;;18.60;68.20;;;19.92;51.61;97637.16;5021304;28;20049;-60
2023/08/09 08:43:08;;;;;;;4.18;2.10;;;18.60;68.00;;;19.91;51.96;97651.75;5021868;28;20060;-59
2023/08/09 08:45:41;;;;;;;5.65;2.60;;;18.60;68.00;;;19.78;52.14;97632.94;5022971;28;20045;-59
2023/08/09 08:48:10;;;;;;;2.58;1.98;;;18.60;68.50;;;19.95;51.62;97642.13;5021023;28;20044;-60
2023/08/09 08:50:41;;;;;;;2.58;1.80;;;18.70;68.80;;;20.06;51.54;97646.81;5022685;28;20037;-59
2023/08/09 08:53:11;;;;;;;3.22;1.83;;;18.80;68.40;;;20.05;51.60;97642.44;5022346;28;20041;-59
2023/08/09 08:55:39;;;;;;;3.50;2.05;;;18.80;68.20;;;19.97;51.96;97641.91;5021355;28;20045;-59
2023/08/09 08:58:08;;;;;;;3.58;1.90;;;18.70;68.50;;;20.02;51.79;97642.06;5020935;28;20519;-60
2023/08/09 09:00:36;;;;;;;3.47;2.35;;;18.80;68.60;;;19.89;52.37;97651.13;5016959;28;20060;-60
2023/08/09 09:03:04;;;;;;;5.70;2.33;;;18.60;69.20;;;19.74;53.03;97654.16;5021437;28;20050;-59
2023/08/09 09:05:32;;;;;;;3.92;1.95;;;18.60;70.40;;;19.74;53.14;97654.16;5018362;28;20476;-60
2023/08/09 09:08:00;;;;;;;3.22;1.67;;;18.50;70.60;;;19.60;53.56;97650.69;5019397;28;20076;-60
2023/08/09 09:10:27;;;;;;;4.72;2.00;;;18.50;71.30;;;19.63;53.61;97652.13;5019575;28;20049;-59
2023/08/09 09:12:58;;;;;;;2.65;2.13;;;18.50;71.40;;;19.70;53.75;97657.47;5020181;28;20050;-59
2023/08/09 09:15:27;;;;;;;4.53;2.05;;;18.50;71.30;;;19.82;53.60;97659.28;5009949;28;20420;-60
2023/08/09 09:17:55;;;;;;;6.80;2.10;;;18.60;70.80;;;19.77;53.34;97674.47;5019250;28;20049;-59
2023/08/09 09:20:33;;;;;;;7.90;3.47;;;18.60;70.60;;;19.65;53.85;97656.25;5018676;28;20042;-60
2023/08/09 09:23:01;;;;;;;3.30;1.75;;;18.50;71.30;;;19.82;53.57;97663.84;5021927;28;20048;-60
2023/08/09 09:25:29;;;;;;;5.47;1.85;;;18.60;71.00;;;19.89;53.09;97661.94;5022082;28;20046;-60
2023/08/09 09:27:57;;;;;;;4.05;1.75;;;18.70;70.50;;;19.99;52.99;97656.03;5022040;28;20049;-59
2023/08/09 09:30:29;;;;;;;3.65;1.85;;;18.80;70.20;;;19.94;53.28;97661.25;5021865;28;20443;-59
2023/08/09 09:33:02;;;;;;;3.78;2.17;;;18.80;70.00;;;20.08;53.05;97657.38;5017781;28;20445;-60
2023/08/09 09:35:32;;;;;;;2.42;1.77;;;18.90;70.00;;;20.31;52.62;97658.63;5020060;28;20049;-60
2023/08/09 09:38:03;;;;;;;3.75;2.55;;;19.10;69.60;;;20.25;52.65;97652.25;5029899;28;20069;-59
2023/08/09 09:40:33;;;;;;;4.63;1.75;;;19.10;69.30;;;20.44;52.34;97662.03;5021102;28;20116;-60
2023/08/09 09:43:06;;;;;;;4.03;1.85;;;19.30;69.20;;;20.59;52.28;97663.56;5021921;28;20477;-60
2023/08/09 09:45:36;;;;;;;8.38;2.55;;;19.50;68.30;;;20.63;51.89;97670.19;5022630;28;20049;-59
2023/08/09 09:48:13;;;;;;;3.72;2.10;;;19.60;68.00;;;20.55;52.29;97670.44;5021954;28;20068;-60
2023/08/09 09:50:42;;;;;;;7.82;2.25;;;19.40;68.20;;;20.37;53.25;97673.97;5018729;28;20045;-60
2023/08/09 09:53:14;;;;;;;5.65;1.98;;;19.20;70.40;;;20.31;53.82;97686.50;5019743;28;20053;-60
2023/08/09 09:55:42;;;;;;;4.95;1.92;;;19.10;73.20;;;20.25;54.15;97676.56;5030463;28;20493;-59
2023/08/09 09:58:12;;;;;;;2.63;1.95;;;18.90;74.00;;;20.19;55.25;97689.09;5030231;28;20045;-59
2023/08/09 10:00:52;;;;;;;3.97;2.25;;;18.80;75.20;;;20.16;55.72;97684.16;5025268;28;20057;-59
2023/08/09 10:03:24;;;;;;;4.95;2.10;;;18.80;77.30;;;20.16;55.04;97681.44;5020970;28;20048;-59
2023/08/09 10:05:57;;;;;;;3.95;2.13;;;18.70;76.70;;;20.22;54.79;97677.00;5024429;28;20053;-59
2023/08/09 10:08:27;;;;;;;3.70;2.15;;;18.80;76.40;;;20.20;54.54;97681.81;5025573;28;20425;-59
2023/08/09 10:10:57;;;;;;;3.53;2.67;;;18.80;76.00;;;20.16;55.30;97676.03;5026547;28;20045;-60
2023/08/09 10:13:26;;;;;;;2.80;1.95;;;18.80;76.30;;;20.09;55.38;97685.25;5025626;28;20509;-59
2023/08/09 10:16:02;;;;;;;4.88;2.08;;;18.70;76.70;;;20.16;55.72;97686.84;5021010;28;20057;-59
2023/08/09 10:18:42;;;;;;;3.67;2.90;;;18.80;78.00;;;20.18;55.83;97681.19;5022343;28;20050;-59
2023/08/09 10:21:14;;;;;;;4.22;2.53;;;18.80;78.50;;;19.97;57.12;97680.56;5032544;28;20208;-59
2023/08/09 10:23:57;;;;;;;4.57;2.38;;;18.70;79.20;;;20.03;56.36;97686.97;5012927;28;20046;-59
2023/08/09 10:26:31;;;;;;;2.85;1.75;;;18.70;79.20;;;20.10;56.20;97686.91;5026441;28;20512;-59
2023/08/09 10:29:12;;;;;;;3.97;2.67;;;18.80;78.60;;;20.14;56.08;97693.50;5029657;28;20065;-59